Time;durP1;ratioP1;P1;durP2;ratioP2;P2;SDS_P1;SDS_P2;PMS_P1;PMS_P2;Temp;Humidity;BMP_temperature;BMP_pressure;BME280_temperature;BME280_humidity;BME280_pressure;Samples;Min_cycle;Max_cycle;Signal;HPM_P1;HPM_P2
2022/09/29 00:02:04;;;;;;;11.30;3.60;;;;;;;11.04;100.00;97393.91;2175141;82;21502;-58
2022/09/29 00:05:06;;;;;;;17.77;3.98;;;;;;;11.03;100.00;97403.59;2174691;82;21120;-58
2022/09/29 00:08:07;;;;;;;14.20;3.83;;;;;;;11.04;100.00;97405.72;2175318;81;21071;-59
2022/09/29 00:11:09;;;;;;;14.13;4.00;;;;;;;10.99;100.00;97396.94;2175108;81;21063;-58
2022/09/29 00:14:10;;;;;;;13.97;3.90;;;;;;;10.87;100.00;97397.48;2175420;81;21010;-58
2022/09/29 00:17:12;;;;;;;14.40;3.98;;;;;;;10.78;100.00;97390.41;2181737;82;21001;-58
2022/09/29 00:20:15;;;;;;;16.23;4.10;;;;;;;10.75;100.00;97390.18;2182344;82;21488;-58
2022/09/29 00:23:16;;;;;;;20.60;4.67;;;;;;;10.86;100.00;97394.98;2182237;82;20984;-58
2022/09/29 00:26:18;;;;;;;16.40;4.45;;;;;;;10.73;100.00;97409.16;2182176;81;21538;-62
2022/09/29 00:29:20;;;;;;;15.40;4.17;;;;;;;10.54;100.00;97410.34;2182353;81;20984;-58
2022/09/29 00:32:21;;;;;;;16.57;4.20;;;;;;;10.35;100.00;97415.80;2182309;81;21475;-58
2022/09/29 00:35:22;;;;;;;16.35;4.87;;;;;;;10.20;100.00;97417.02;2182448;81;21019;-58
2022/09/29 00:38:24;;;;;;;15.47;4.60;;;;;;;10.07;100.00;97431.63;2182474;81;21103;-58
2022/09/29 00:41:26;;;;;;;17.92;4.78;;;;;;;9.95;100.00;97436.53;2182357;81;21020;-58
2022/09/29 00:44:27;;;;;;;16.55;4.78;;;;;;;9.84;100.00;97440.84;2182365;81;21087;-58
2022/09/29 00:47:29;;;;;;;23.47;5.03;;;;;;;9.81;100.00;97440.25;2182202;81;20953;-58
2022/09/29 00:50:30;;;;;;;18.23;4.67;;;;;;;9.84;100.00;97449.16;2182072;81;20993;-57
2022/09/29 00:53:32;;;;;;;20.70;5.30;;;;;;;9.79;100.00;97438.23;2182124;82;21003;-58
2022/09/29 00:56:33;;;;;;;20.05;4.83;;;;;;;9.87;100.00;97441.09;2182069;81;21015;-58
2022/09/29 00:59:34;;;;;;;19.12;5.30;;;;;;;9.98;100.00;97436.28;2182319;81;21475;-58
2022/09/29 01:02:36;;;;;;;19.48;5.45;;;;;;;10.00;100.00;97430.45;2182005;82;21000;-58
2022/09/29 01:05:37;;;;;;;20.70;4.90;;;;;;;9.93;100.00;97424.87;2182052;81;21602;-58
2022/09/29 01:08:39;;;;;;;16.42;4.60;;;;;;;9.87;100.00;97420.95;2182546;81;20999;-58
2022/09/29 01:11:41;;;;;;;16.12;4.78;;;;;;;9.84;100.00;97432.99;2182016;81;20980;-58
2022/09/29 01:14:43;;;;;;;19.25;5.05;;;;;;;9.80;100.00;97429.44;2181925;82;21019;-58
2022/09/29 01:17:46;;;;;;;18.80;4.80;;;;;;;9.85;100.00;97425.95;2181952;81;21475;-57
2022/09/29 01:20:47;;;;;;;19.23;4.42;;;;;;;10.01;100.00;97426.40;2182260;81;21063;-58
2022/09/29 01:23:49;;;;;;;16.30;5.03;;;;;;;10.31;100.00;97434.00;2182212;81;20987;-58
2022/09/29 01:26:50;;;;;;;18.32;5.25;;;;;;;10.39;100.00;97440.80;2182023;81;20977;-57
2022/09/29 01:29:51;;;;;;;19.52;5.53;;;;;;;10.45;100.00;97448.64;2182268;81;21475;-58
2022/09/29 01:32:53;;;;;;;16.73;4.87;;;;;;;10.51;100.00;97455.98;2181735;81;21010;-57
2022/09/29 01:35:54;;;;;;;17.37;5.03;;;;;;;10.50;100.00;97451.72;2181990;81;21488;-58
2022/09/29 01:38:56;;;;;;;20.88;5.25;;;;;;;10.64;100.00;97470.72;2182149;81;20980;-57
2022/09/29 01:41:57;;;;;;;23.20;6.20;;;;;;;10.66;100.00;97474.03;2182022;81;21048;-58
2022/09/29 01:44:59;;;;;;;20.00;5.70;;;;;;;10.43;100.00;97479.40;2182209;81;20987;-58
2022/09/29 01:48:00;;;;;;;23.50;5.53;;;;;;;10.21;100.00;97486.81;2182260;81;20988;-57
2022/09/29 01:51:01;;;;;;;20.12;5.50;;;;;;;10.14;100.00;97478.64;2182208;82;20960;-58
2022/09/29 01:54:03;;;;;;;20.83;5.80;;;;;;;10.42;100.00;97479.53;2182170;82;21072;-58
2022/09/29 01:57:05;;;;;;;19.77;5.87;;;;;;;10.42;100.00;97479.53;2182325;81;20993;-58
2022/09/29 02:00:08;;;;;;;18.80;5.75;;;;;;;10.51;100.00;97472.20;2181767;82;21072;-58
2022/09/29 02:03:10;;;;;;;19.25;5.97;;;;;;;10.57;100.00;97480.41;2181895;81;21016;-58
2022/09/29 02:06:11;;;;;;;20.68;5.83;;;;;;;10.59;100.00;97472.41;2181870;81;21566;-58
2022/09/29 02:09:13;;;;;;;19.40;5.20;;;;;;;10.52;100.00;97469.95;2182508;81;20999;-58
2022/09/29 02:12:14;;;;;;;18.98;5.83;;;;;;;10.48;100.00;97475.09;2182205;81;21008;-58
2022/09/29 02:15:16;;;;;;;20.80;5.55;;;;;;;10.43;100.00;97479.40;2181053;81;21712;-58
2022/09/29 02:18:17;;;;;;;21.37;5.60;;;;;;;10.40;100.00;97477.86;2175113;81;21048;-57
2022/09/29 02:21:19;;;;;;;20.53;6.20;;;;;;;10.40;100.00;97490.11;2175191;81;21499;-58
2022/09/29 02:24:20;;;;;;;20.02;5.80;;;;;;;10.25;100.00;97497.41;2174994;81;21024;-58
2022/09/29 02:27:22;;;;;;;17.73;5.28;;;;;;;10.05;100.00;97503.76;2174946;81;21043;-58
2022/09/29 02:30:23;;;;;;;18.75;5.67;;;;;;;9.91;100.00;97506.64;2175232;82;20957;-58
2022/09/29 02:33:25;;;;;;;19.70;5.97;;;;;;;9.78;100.00;97512.51;2175223;82;21004;-58
2022/09/29 02:36:26;;;;;;;19.55;5.62;;;;;;;9.70;100.00;97508.70;2175406;81;21027;-59
2022/09/29 02:39:28;;;;;;;17.67;5.30;;;;;;;9.63;100.00;97511.45;2175022;81;21047;-58
2022/09/29 02:42:29;;;;;;;21.07;6.08;;;;;;;9.54;100.00;97508.25;2175400;81;20988;-58
2022/09/29 02:45:31;;;;;;;20.72;6.03;;;;;;;9.56;100.00;97505.52;2175174;82;20984;-58
2022/09/29 02:48:32;;;;;;;18.17;6.15;;;;;;;9.57;100.00;97506.70;2175269;81;21503;-58
2022/09/29 02:51:33;;;;;;;19.65;6.05;;;;;;;9.56;100.00;97503.72;2175018;81;20976;-57
2022/09/29 02:54:36;;;;;;;18.00;5.72;;;;;;;9.63;100.00;97493.12;2174937;81;21571;-58
2022/09/29 02:57:38;;;;;;;20.52;6.20;;;;;;;9.76;100.00;97498.72;2174921;81;21039;-58
2022/09/29 03:00:40;;;;;;;18.80;5.70;;;;;;;9.83;100.00;97504.64;2175287;81;20997;-57
2022/09/29 03:03:41;;;;;;;20.97;6.13;;;;;;;9.89;100.00;97511.19;2175311;81;21005;-58
2022/09/29 03:06:43;;;;;;;19.55;6.10;;;;;;;9.89;100.00;97511.19;2175237;81;21943;-58
2022/09/29 03:09:44;;;;;;;18.48;5.97;;;;;;;9.93;100.00;97507.38;2175350;81;20993;-58
2022/09/29 03:12:46;;;;;;;21.15;5.58;;;;;;;9.86;100.00;97507.50;2175067;81;21494;-58
2022/09/29 03:15:47;;;;;;;20.02;6.10;;;;;;;9.82;100.00;97508.20;2174980;82;21060;-58
2022/09/29 03:18:49;;;;;;;19.30;6.00;;;;;;;9.87;100.00;97513.11;2175114;81;21479;-58
2022/09/29 03:21:51;;;;;;;20.15;6.08;;;;;;;9.88;100.00;97512.13;2175121;81;20945;-58
2022/09/29 03:24:52;;;;;;;20.32;6.08;;;;;;;9.82;100.00;97512.62;2175283;81;21543;-58
2022/09/29 03:27:54;;;;;;;19.95;6.22;;;;;;;9.82;100.00;97514.76;2175107;81;20976;-58
2022/09/29 03:30:55;;;;;;;24.45;6.55;;;;;;;9.87;100.00;97519.17;2175308;82;21519;-58
2022/09/29 03:33:57;;;;;;;21.85;6.62;;;;;;;9.98;100.00;97519.61;2175184;81;21020;-58
2022/09/29 03:36:59;;;;;;;21.07;6.17;;;;;;;10.05;100.00;97518.17;2174985;81;20992;-58
2022/09/29 03:40:00;;;;;;;20.53;6.60;;;;;;;10.12;100.00;97515.91;2175431;82;20957;-58
2022/09/29 03:43:01;;;;;;;18.42;6.17;;;;;;;10.19;100.00;97513.63;2175182;81;20983;-58
2022/09/29 03:46:03;;;;;;;20.48;6.30;;;;;;;10.19;100.00;97518.88;2175278;81;20988;-58
2022/09/29 03:49:04;;;;;;;19.27;6.35;;;;;;;10.16;100.00;97526.50;2175433;81;20991;-58
2022/09/29 03:52:06;;;;;;;19.70;6.40;;;;;;;10.18;100.00;97523.27;2175474;81;21012;-58
2022/09/29 03:55:08;;;;;;;20.72;6.78;;;;;;;10.19;100.00;97522.80;2174948;81;21059;-58
2022/09/29 03:58:09;;;;;;;20.90;5.97;;;;;;;10.21;100.00;97514.33;2175544;81;20988;-57
2022/09/29 04:01:11;;;;;;;17.73;5.60;;;;;;;10.20;100.00;97510.03;2175397;81;21028;-58
2022/09/29 04:04:13;;;;;;;21.40;6.80;;;;;;;10.19;100.00;97509.21;2175569;81;21530;-57
2022/09/29 04:07:14;;;;;;;21.48;6.42;;;;;;;10.18;100.00;97505.41;2174914;81;21055;-58
2022/09/29 04:10:16;;;;;;;19.77;6.50;;;;;;;10.17;100.00;97495.88;2175376;81;21535;-58
2022/09/29 04:13:17;;;;;;;20.30;6.85;;;;;;;10.19;100.00;97497.91;2175331;81;21084;-58
2022/09/29 04:16:19;;;;;;;22.50;7.05;;;;;;;10.18;100.00;97500.98;2177284;82;21048;-58
2022/09/29 04:19:20;;;;;;;21.50;6.87;;;;;;;10.20;100.00;97497.78;2182234;81;20988;-58
2022/09/29 04:22:22;;;;;;;21.57;6.23;;;;;;;10.19;100.00;97513.63;2182360;81;21000;-58
2022/09/29 04:25:23;;;;;;;17.35;5.87;;;;;;;10.17;100.00;97523.39;2182226;81;20980;-58
2022/09/29 04:28:25;;;;;;;22.07;7.00;;;;;;;10.05;100.00;97530.44;2182110;81;20995;-58
2022/09/29 04:31:26;;;;;;;20.45;6.65;;;;;;;9.85;100.00;97549.86;2182086;81;21073;-59
2022/09/29 04:34:28;;;;;;;21.68;6.35;;;;;;;9.64;100.00;97544.54;2182035;81;20980;-58
2022/09/29 04:37:30;;;;;;;19.02;6.28;;;;;;;9.54;100.00;97531.32;2182591;81;21549;-58
2022/09/29 04:40:32;;;;;;;;;;;;;;;9.32;100.00;97541.31;2184788;81;21008;-58
2022/09/29 04:43:33;;;;;;;22.37;6.65;;;;;;;9.33;100.00;97548.19;2182163;82;20099;-58
2022/09/29 04:46:34;;;;;;;21.95;6.92;;;;;;;9.43;100.00;97547.50;2181989;81;21035;-58
2022/09/29 04:49:36;;;;;;;24.35;6.95;;;;;;;9.59;100.00;97553.21;2182324;81;21035;-58
2022/09/29 04:52:38;;;;;;;21.17;6.20;;;;;;;9.61;100.00;97553.09;2182229;81;21067;-61
2022/09/29 04:55:40;;;;;;;20.57;7.12;;;;;;;9.75;100.00;97553.34;2182302;81;20988;-58
2022/09/29 04:58:42;;;;;;;19.98;6.70;;;;;;;9.80;100.00;97552.52;2182318;81;20968;-58
2022/09/29 05:01:43;;;;;;;21.35;7.12;;;;;;;9.85;100.00;97558.20;2182310;81;21023;-60
2022/09/29 05:04:46;;;;;;;20.25;6.95;;;;;;;9.88;100.00;97557.51;2182153;81;21011;-62
2022/09/29 05:07:48;;;;;;;21.12;6.72;;;;;;;9.96;100.00;97565.23;2181664;82;21036;-57
2022/09/29 05:10:50;;;;;;;22.73;7.30;;;;;;;9.94;100.00;97564.05;2182410;81;21478;-58
2022/09/29 05:13:51;;;;;;;24.43;7.22;;;;;;;9.97;100.00;97572.98;2182007;81;21079;-58
2022/09/29 05:16:53;;;;;;;22.42;7.58;;;;;;;10.07;100.00;97574.40;2182043;81;21575;-61
2022/09/29 05:19:54;;;;;;;22.05;6.92;;;;;;;10.16;100.00;97575.45;2182168;81;20988;-58
2022/09/29 05:22:56;;;;;;;19.40;6.70;;;;;;;10.20;100.00;97575.09;2182040;81;21027;-58
2022/09/29 05:25:57;;;;;;;19.48;6.50;;;;;;;10.23;100.00;97574.84;2182136;81;20962;-58
2022/09/29 05:28:59;;;;;;;22.55;7.87;;;;;;;10.27;100.00;97576.75;2182037;81;20989;-58
2022/09/29 05:32:02;;;;;;;21.80;7.30;;;;;;;10.36;100.00;97577.84;2154861;82;21526;-58
2022/09/29 05:35:04;;;;;;;22.52;7.35;;;;;;;10.40;100.00;97577.91;2182136;81;20961;-58
2022/09/29 05:38:06;;;;;;;25.50;9.45;;;;;;;10.58;100.00;97583.48;2182140;81;21475;-58
2022/09/29 05:41:09;;;;;;;25.77;10.13;;;;;;;10.77;100.00;97584.13;2181967;81;21051;-58
2022/09/29 05:44:10;;;;;;;21.17;7.20;;;;;;;10.86;100.00;97587.33;2182311;82;21067;-58
2022/09/29 05:47:12;;;;;;;21.00;6.97;;;;;;;10.78;100.00;97584.98;2182268;81;20988;-58
2022/09/29 05:50:13;;;;;;;24.60;7.33;;;;;;;10.64;100.00;97593.47;2182274;81;20996;-58
2022/09/29 05:53:15;;;;;;;20.32;6.97;;;;;;;10.52;100.00;97592.67;2181957;81;21004;-57
2022/09/29 05:56:17;;;;;;;20.70;6.80;;;;;;;10.33;100.00;97593.75;2182004;81;21483;-58
2022/09/29 05:59:19;;;;;;;19.62;6.12;;;;;;;10.30;100.00;97597.92;2181996;81;20988;-58
2022/09/29 06:02:20;;;;;;;20.20;6.40;;;;;;;10.35;100.00;97589.27;2182245;81;20992;-61
2022/09/29 06:05:22;;;;;;;21.70;6.37;;;;;;;10.26;100.00;97601.74;2182221;81;20980;-58
2022/09/29 06:08:23;;;;;;;25.70;9.83;;;;;;;10.32;100.00;97594.23;2182422;81;21051;-58
2022/09/29 06:11:26;;;;;;;20.72;7.60;;;;;;;10.45;100.00;97595.92;2181662;81;21043;-58
2022/09/29 06:14:28;;;;;;;30.45;12.20;;;;;;;10.61;100.00;97601.59;2181881;82;21008;-62
2022/09/29 06:17:30;;;;;;;24.82;7.85;;;;;;;10.71;100.00;97599.87;2181860;82;21561;-58
2022/09/29 06:20:37;;;;;;;22.25;7.10;;;;;;;10.78;100.00;97605.96;2182384;81;21032;-58
2022/09/29 06:23:34;;;;;;;22.48;6.75;;;;;;;10.70;100.00;97609.19;2154918;82;20988;-58
2022/09/29 06:26:36;;;;;;;19.42;6.80;;;;;;;10.49;100.00;97604.72;2182100;82;21487;-58
2022/09/29 06:29:37;;;;;;;18.93;6.20;;;;;;;10.47;100.00;97607.92;2182370;81;20972;-58
2022/09/29 06:32:39;;;;;;;19.82;6.10;;;;;;;10.49;100.00;97607.34;2182101;81;21551;-58
2022/09/29 06:38:44;;;;;;;18.35;5.80;;;;;;;10.24;100.00;97617.59;2155056;82;20988;-58
2022/09/29 06:44:49;;;;;;;18.32;5.70;;;;;;;10.25;100.00;97613.20;2154938;82;21522;-58
2022/09/29 06:47:51;;;;;;;23.30;6.28;;;;;;;10.17;100.00;97613.33;2182195;82;20949;-58
2022/09/29 06:50:52;;;;;;;19.90;6.30;;;;;;;10.21;100.00;97604.73;2181967;81;21031;-57
2022/09/29 06:53:53;;;;;;;19.25;6.17;;;;;;;10.29;100.00;97606.28;2182031;81;21043;-58
2022/09/29 06:56:55;;;;;;;19.80;6.42;;;;;;;10.46;100.00;97604.12;2181946;81;20968;-58
2022/09/29 06:59:57;;;;;;;18.10;5.35;;;;;;;10.40;100.00;97606.30;2182331;81;21035;-57
2022/09/29 07:02:58;;;;;;;20.02;5.62;;;;;;;10.23;100.00;97610.70;2182090;81;21000;-58
2022/09/29 07:06:00;;;;;;;19.98;5.67;;;;;;;10.05;100.00;97612.97;2182328;81;20992;-57
2022/09/29 07:09:03;;;;;;;19.12;5.83;;;;;;;10.04;100.00;97616.08;2182212;81;20973;-58
2022/09/29 07:12:05;;;;;;;19.75;5.75;;;;;;;9.95;100.00;97626.43;2155304;82;20992;-57
2022/09/29 07:15:06;;;;;;;18.50;5.58;;;;;;;9.90;100.00;97624.17;2182030;81;21016;-58
2022/09/29 07:18:08;;;;;;;20.45;5.95;;;;;;;9.86;100.00;97637.97;2181834;81;21503;-58
2022/09/29 07:21:10;;;;;;;17.67;5.40;;;;;;;9.81;100.00;97641.44;2181929;81;21048;-62
2022/09/29 07:24:11;;;;;;;18.82;5.85;;;;;;;9.82;100.00;97643.56;2181893;81;21463;-58
2022/09/29 07:27:14;;;;;;;;;;;;;;;9.92;100.00;97636.66;2184480;81;21047;-57
2022/09/29 07:30:15;;;;;;;17.55;5.50;;;;;;;9.97;100.00;97627.98;2181842;82;20121;-58
2022/09/29 07:33:17;;;;;;;18.05;5.83;;;;;;;10.03;100.00;97631.42;2181880;81;21001;-58
2022/09/29 07:36:18;;;;;;;18.77;5.57;;;;;;;10.22;100.00;97624.75;2182406;81;21456;-58
2022/09/29 07:39:21;;;;;;;17.82;5.30;;;;;;;10.43;100.00;97624.03;2181964;82;21052;-62
2022/09/29 07:42:23;;;;;;;18.45;5.55;;;;;;;10.45;100.00;97640.48;2182054;82;21039;-57
2022/09/29 07:45:24;;;;;;;18.73;6.00;;;;;;;10.39;100.00;97641.80;2182004;81;20988;-59
2022/09/29 07:48:26;;;;;;;18.50;5.95;;;;;;;10.46;100.00;97644.30;2182181;81;21479;-61
2022/09/29 07:51:27;;;;;;;16.60;5.20;;;;;;;10.45;100.00;97650.48;2182172;81;21036;-58
2022/09/29 07:54:29;;;;;;;17.02;4.95;;;;;;;10.52;100.00;97651.66;2182094;82;21570;-58
2022/09/29 07:57:31;;;;;;;20.30;5.60;;;;;;;10.68;100.00;97656.52;2181904;81;21043;-62
2022/09/29 08:00:33;;;;;;;18.12;5.25;;;;;;;10.77;100.00;97664.13;2182551;81;21012;-58
2022/09/29 08:03:34;;;;;;;15.65;4.87;;;;;;;10.84;100.00;97660.53;2181651;82;20992;-58
2022/09/29 08:06:36;;;;;;;17.03;5.20;;;;;;;10.81;100.00;97657.67;2182386;81;21487;-61
2022/09/29 08:09:37;;;;;;;17.40;5.20;;;;;;;10.96;100.00;97657.39;2182164;81;21004;-58
2022/09/29 08:12:39;;;;;;;16.77;5.03;;;;;;;11.12;100.00;97657.83;2181890;81;21510;-58
2022/09/29 08:15:41;;;;;;;21.27;4.85;;;;;;;11.36;100.00;97668.56;2181930;82;21060;-58
2022/09/29 08:18:43;;;;;;;;;;;;;;;11.33;100.00;97671.45;2178720;81;21527;-58
2022/09/29 08:21:48;;;;;;;16.50;4.15;;;;;;;11.33;100.00;97667.02;2174983;82;20106;-58
2022/09/29 08:24:48;;;;;;;14.53;4.80;;;;;;;11.37;100.00;97669.75;2145872;82;21004;-58
2022/09/29 08:27:50;;;;;;;14.63;4.40;;;;;;;11.37;100.00;97676.31;2175650;81;21045;-58
2022/09/29 08:30:51;;;;;;;14.05;4.53;;;;;;;11.35;100.00;97674.30;2175268;81;21040;-58
2022/09/29 08:33:52;;;;;;;15.95;4.60;;;;;;;11.39;100.00;97680.97;2175416;81;21543;-58
2022/09/29 08:36:55;;;;;;;16.95;5.10;;;;;;;11.36;100.00;97686.45;2175263;81;20976;-58
2022/09/29 08:39:56;;;;;;;;;;;;;;;11.34;100.00;97687.56;2177954;82;21092;-58
2022/09/29 08:42:58;;;;;;;18.57;4.70;;;;;;;11.41;100.00;97684.29;2175080;82;20121;-61
2022/09/29 08:45:59;;;;;;;17.02;5.00;;;;;;;11.72;100.00;97689.63;2175036;81;21052;-58
2022/09/29 08:49:01;;;;;;;16.07;4.50;;;;;;;11.86;100.00;97688.95;2175086;82;20979;-62
2022/09/29 08:52:02;;;;;;;17.48;4.50;;;;;;;11.93;100.00;97695.34;2175255;81;21526;-58
2022/09/29 08:55:05;;;;;;;14.98;4.50;;;;;;;12.18;100.00;97702.48;2175234;81;21023;-58
2022/09/29 08:58:07;;;;;;;14.58;4.42;;;;;;;12.30;100.00;97699.64;2175356;82;21095;-58
2022/09/29 09:01:08;;;;;;;15.40;5.05;;;;;;;12.39;100.00;97709.84;2175334;81;21095;-58
2022/09/29 09:04:10;;;;;;;17.47;4.90;;;;;;;12.61;100.00;97706.20;2175171;81;21012;-58
2022/09/29 09:07:11;;;;;;;16.12;4.58;;;;;;;12.68;100.00;97710.42;2175366;81;20953;-63
2022/09/29 09:10:13;;;;;;;17.62;5.12;;;;;;;12.48;100.00;97712.16;2175166;81;21048;-58
2022/09/29 09:13:15;;;;;;;19.25;5.37;;;;;;;12.54;100.00;97716.91;2174956;82;21028;-58
2022/09/29 09:16:16;;;;;;;17.15;5.12;;;;;;;12.79;100.00;97714.27;2175599;81;21530;-58
2022/09/29 09:19:17;;;;;;;15.70;4.65;;;;;;;12.61;100.00;97719.36;2175206;81;21063;-58
2022/09/29 09:22:20;;;;;;;14.27;4.60;;;;;;;12.40;100.00;97722.03;2175333;81;21534;-58
2022/09/29 09:25:22;;;;;;;16.30;4.92;;;;;;;12.42;100.00;97726.67;2175128;81;21020;-58
2022/09/29 09:28:23;;;;;;;14.23;4.40;;;;;;;12.60;100.00;97730.83;2175723;81;21520;-58
2022/09/29 09:31:25;;;;;;;14.70;4.00;;;;;;;12.89;100.00;97728.77;2174846;81;20973;-58
2022/09/29 09:34:27;;;;;;;22.95;5.60;;;;;;;13.12;100.00;97729.86;2175267;81;21052;-58
2022/09/29 09:37:28;;;;;;;17.00;4.60;;;;;;;13.20;100.00;97730.48;2175315;81;20992;-59
2022/09/29 09:40:30;;;;;;;18.90;5.37;;;;;;;13.23;100.00;97729.73;2175547;81;21502;-58
2022/09/29 09:43:32;;;;;;;16.82;5.25;;;;;;;13.08;100.00;97740.31;2175159;81;20976;-62
2022/09/29 09:46:34;;;;;;;17.60;4.83;;;;;;;13.17;100.00;97742.96;2175180;81;21020;-58
2022/09/29 09:49:35;;;;;;;17.65;4.85;;;;;;;13.39;100.00;97741.54;2175277;82;21047;-58
2022/09/29 09:52:37;;;;;;;15.73;4.90;;;;;;;13.81;100.00;97735.50;2175520;81;21056;-58
2022/09/29 09:55:39;;;;;;;17.02;4.75;;;;;;;13.96;100.00;97741.66;2175192;81;20975;-58
2022/09/29 09:58:40;;;;;;;22.67;5.28;;;;;;;14.17;100.00;97744.12;2175447;81;21004;-59
2022/09/29 10:01:42;;;;;;;16.00;5.17;;;;;;;14.24;100.00;97733.80;2175318;81;20957;-58
2022/09/29 10:04:43;;;;;;;16.50;4.53;;;;;;;14.33;100.00;97731.64;2175426;81;21496;-58
2022/09/29 10:07:45;;;;;;;17.45;4.85;;;;;;;14.16;100.00;97729.26;2175309;81;21048;-58
2022/09/29 10:10:47;;;;;;;16.25;4.78;;;;;;;13.88;100.00;97734.47;2174961;82;21507;-58
2022/09/29 10:13:48;;;;;;;16.03;4.90;;;;;;;13.57;100.00;97732.48;2175230;81;21000;-58
2022/09/29 10:16:50;;;;;;;15.58;4.90;;;;;;;13.73;100.00;97735.86;2174901;81;21539;-58
2022/09/29 10:19:51;;;;;;;15.95;4.70;;;;;;;14.07;100.00;97745.45;2175118;81;21041;-58
2022/09/29 10:22:53;;;;;;;14.30;5.03;;;;;;;14.22;100.00;97745.82;2175262;81;21515;-58
2022/09/29 10:25:54;;;;;;;17.53;5.13;;;;;;;14.17;100.00;97737.02;2175529;81;21024;-58
2022/09/29 10:28:57;;;;;;;14.28;4.72;;;;;;;14.23;100.00;97742.22;2175153;81;21011;-58
2022/09/29 10:31:59;;;;;;;14.53;4.12;;;;;;;14.36;100.00;97743.22;2174969;82;20961;-58
2022/09/29 10:35:00;;;;;;;14.80;4.33;;;;;;;14.40;100.00;97749.88;2175242;81;21012;-58
2022/09/29 10:38:02;;;;;;;16.27;4.60;;;;;;;14.42;100.00;97750.55;2175266;81;20968;-62
2022/09/29 10:41:04;;;;;;;14.78;4.50;;;;;;;14.69;100.00;97754.23;2175440;81;21516;-60
2022/09/29 10:44:05;;;;;;;17.85;4.83;;;;;;;14.83;100.00;97751.11;2174864;82;21044;-62
2022/09/29 10:47:07;;;;;;;14.13;4.50;;;;;;;14.99;100.00;97751.79;2175054;81;21586;-58
2022/09/29 10:50:09;;;;;;;15.63;4.47;;;;;;;15.35;100.00;97753.66;2174775;82;21015;-58
2022/09/29 10:53:10;;;;;;;16.33;5.00;;;;;;;15.59;100.00;97756.52;2175185;81;21487;-59
2022/09/29 10:56:12;;;;;;;12.87;3.97;;;;;;;15.93;100.00;97755.86;2175262;81;20976;-59
2022/09/29 10:59:14;;;;;;;16.55;4.50;;;;;;;16.39;100.00;97749.05;2175218;82;21566;-58
2022/09/29 11:02:15;;;;;;;16.63;4.33;;;;;;;17.00;100.00;97754.31;2175473;81;20980;-62
2022/09/29 11:05:17;;;;;;;13.98;4.15;;;;;;;17.15;100.00;97759.80;2174894;81;21550;-60
2022/09/29 11:08:24;;;;;;;14.43;4.90;;;;;;;17.41;100.00;97754.89;2175495;81;20989;-59
2022/09/29 11:11:23;;;;;;;17.40;4.72;;;;;;;17.93;100.00;97748.02;2146062;82;21719;-59
2022/09/29 11:14:25;;;;;;;13.98;5.12;;;;;;;18.16;100.00;97752.64;2175067;81;21035;-59
2022/09/29 11:17:26;;;;;;;13.15;4.47;;;;;;;18.41;100.00;97757.89;2175343;82;21539;-58
2022/09/29 11:20:28;;;;;;;11.83;3.85;;;;;;;18.37;100.00;97753.41;2175125;81;21004;-59
2022/09/29 11:23:29;;;;;;;13.83;4.55;;;;;;;18.58;100.00;97752.86;2175084;81;21460;-58
2022/09/29 11:26:31;;;;;;;14.18;4.47;;;;;;;18.75;100.00;97754.97;2175098;81;21000;-63
2022/09/29 11:29:33;;;;;;;11.93;4.30;;;;;;;18.93;100.00;97755.26;2175119;81;21514;-62
2022/09/29 11:32:34;;;;;;;13.55;4.40;;;;;;;19.17;100.00;97757.79;2175176;81;20988;-63
2022/09/29 11:35:37;;;;;;;13.10;3.70;;;;;;;19.06;100.00;97771.46;2175066;81;21558;-62
2022/09/29 11:38:39;;;;;;;12.68;3.67;;;;;;;19.38;100.00;97763.01;2175182;81;21092;-62
2022/09/29 11:41:41;;;;;;;10.45;3.62;;;;;;;19.40;100.00;97759.66;2175017;81;21512;-62
2022/09/29 11:44:42;;;;;;;9.70;3.50;;;;;;;19.28;100.00;97755.25;2175212;81;20976;-58
2022/09/29 11:47:44;;;;;;;11.10;3.40;;;;;;;19.26;100.00;97747.94;2175123;81;20973;-58
2022/09/29 11:50:45;;;;;;;10.63;3.52;;;;;;;19.35;100.00;97752.22;2175260;81;20973;-59
2022/09/29 11:53:47;;;;;;;11.05;3.62;;;;;;;19.73;100.00;97746.95;2175159;82;21032;-59
2022/09/29 11:56:48;;;;;;;18.12;4.20;;;;;;;19.92;100.00;97743.51;2175496;81;20996;-59
2022/09/29 11:59:50;;;;;;;12.63;3.60;;;;;;;19.59;100.00;97751.71;2175238;81;20984;-58
2022/09/29 12:02:51;;;;;;;14.07;3.70;;;;;;;19.79;100.00;97748.10;2175330;81;21491;-58
2022/09/29 12:05:53;;;;;;;11.93;3.62;;;;;;;19.81;100.00;97751.43;2175212;82;21021;-58
2022/09/29 12:08:55;;;;;;;10.60;3.58;;;;;;;19.13;100.00;97754.33;2175305;81;21495;-59
2022/09/29 12:11:57;;;;;;;11.80;3.80;;;;;;;18.70;100.00;97761.28;2175197;82;21005;-59
2022/09/29 12:14:59;;;;;;;11.38;3.77;;;;;;;18.35;100.00;97756.23;2175467;82;21056;-59
2022/09/29 12:18:01;;;;;;;18.42;4.85;;;;;;;18.11;100.00;97757.61;2176711;81;21590;-58
2022/09/29 12:21:02;;;;;;;11.30;3.65;;;;;;;18.09;100.00;97755.63;2182136;81;21044;-58
2022/09/29 12:24:04;;;;;;;10.88;3.22;;;;;;;17.29;100.00;97776.41;2182278;82;21032;-58
2022/09/29 12:27:06;;;;;;;11.70;3.60;;;;;;;16.56;100.00;97774.27;2182255;82;21008;-58
2022/09/29 12:30:07;;;;;;;10.05;3.40;;;;;;;15.93;100.00;97777.48;2182133;82;21106;-58
2022/09/29 12:33:09;;;;;;;14.95;3.77;;;;;;;16.00;100.00;97767.95;2182031;81;21127;-58
2022/09/29 12:36:42;;;;;;;14.30;3.60;;;;;;;16.08;100.00;97768.52;2182173;82;21031;-58
2022/09/29 12:39:14;;;;;;;11.75;3.40;;;;;;;15.87;100.00;97775.45;2155036;82;21027;-58
2022/09/29 12:42:15;;;;;;;10.23;3.20;;;;;;;15.97;100.00;97776.70;2182704;81;21044;-58
2022/09/29 12:45:17;;;;;;;8.95;2.98;;;;;;;16.20;100.00;97773.06;2182378;81;21110;-58
2022/09/29 12:48:19;;;;;;;7.33;2.80;;;;;;;16.39;100.00;97772.02;2182551;82;20992;-58
2022/09/29 12:51:20;;;;;;;10.90;3.10;;;;;;;16.53;100.00;97778.05;2182303;81;21358;-58
2022/09/29 12:54:22;;;;;;;8.45;2.98;;;;;;;16.52;100.00;97771.12;2181969;82;21010;-58
2022/09/29 12:57:24;;;;;;;9.75;2.83;;;;;;;16.34;100.00;97768.52;2182244;81;21000;-58
2022/09/29 13:00:25;;;;;;;7.28;2.95;;;;;;;16.22;100.00;97773.25;2182554;81;21044;-58
2022/09/29 13:03:30;;;;;;;12.35;3.33;;;;;;;16.07;100.00;97778.75;2182072;81;21082;-59
2022/09/29 13:06:30;;;;;;;8.23;3.00;;;;;;;16.01;100.00;97774.91;2154954;82;20996;-58
2022/09/29 13:09:32;;;;;;;9.83;2.80;;;;;;;16.08;100.00;97783.07;2182672;81;21097;-62
2022/09/29 13:12:34;;;;;;;13.35;3.55;;;;;;;15.87;100.00;97790.00;2182102;81;21670;-58
2022/09/29 13:15:35;;;;;;;8.88;3.05;;;;;;;15.66;100.00;97788.48;2182259;81;20984;-58
2022/09/29 13:18:37;;;;;;;10.95;3.02;;;;;;;15.67;100.00;97799.37;2179791;81;21567;-58
2022/09/29 13:21:38;;;;;;;12.15;3.00;;;;;;;15.55;100.00;97800.09;2175282;81;20980;-59
2022/09/29 13:24:40;;;;;;;6.78;2.62;;;;;;;15.22;100.00;97799.74;2174989;81;21507;-58
2022/09/29 13:27:43;;;;;;;9.73;2.93;;;;;;;15.11;100.00;97804.41;2175403;81;21107;-58
2022/09/29 13:30:44;;;;;;;9.95;2.92;;;;;;;15.15;100.00;97793.39;2175413;81;21077;-59
2022/09/29 13:33:46;;;;;;;12.50;3.10;;;;;;;15.34;100.00;97799.07;2175264;81;20988;-58
2022/09/29 13:36:48;;;;;;;8.95;2.58;;;;;;;15.41;100.00;97793.53;2175315;81;21059;-59
2022/09/29 13:39:49;;;;;;;10.63;2.90;;;;;;;15.42;100.00;97796.98;2175342;81;20980;-58
2022/09/29 13:42:54;;;;;;;10.43;2.90;;;;;;;15.45;100.00;97803.80;2175532;81;21485;-58
2022/09/29 13:45:54;;;;;;;13.00;3.40;;;;;;;15.56;100.00;97796.47;2146472;82;21962;-58
2022/09/29 13:48:55;;;;;;;9.40;3.10;;;;;;;15.71;100.00;97796.77;2175330;81;21000;-59
2022/09/29 13:51:57;;;;;;;9.87;2.77;;;;;;;15.82;100.00;97791.78;2175570;81;21285;-58
2022/09/29 13:54:59;;;;;;;8.70;2.67;;;;;;;15.83;100.00;97800.06;2175018;81;21039;-58
2022/09/29 13:58:01;;;;;;;11.27;3.03;;;;;;;15.89;100.00;97800.77;2175686;81;20949;-63
2022/09/29 14:01:03;;;;;;;9.33;3.00;;;;;;;15.94;100.00;97798.98;2175260;81;21595;-63
2022/09/29 14:04:05;;;;;;;9.70;2.95;;;;;;;16.00;100.00;97808.13;2175156;81;20977;-62